Latest Weather Observations for Lismore Airport

IDN60801

Issued at 9:03 am EST Thursday 28 July 2016 (issued every 30 minutes, with the page automatically refreshed every 10 minutes)

About weather observations | Map of weather stations | Latest weather observations for NSW | Other Formats
Station Details ID: 058214 Name: LISMORE AIRPORT AWS Lat: -28.83 Lon: 153.26 Height: 9.21 m
Data from the previous 72 hours. | See also: Recent months at Lismore Airport
Date/Time
EST
Temp
°C
App
Temp
°C
Dew
Point
°C
Rel
Hum
%
Delta-T
°C
Wind Press
QNH
hPa
Press
MSL
hPa
Rain since
9am
mm
Dir  Spd
km/h
Gust
km/h
Spd
kts
Gust
kts
28/09:00am 11.9 9.5 7.0 72 2.3 N 9 13 5 7 1024.8 1024.8 0.0
28/08:30am 9.7 6.7 6.2 79 1.6 N 11 17 6 9 1024.9 1024.9 0.0
28/08:00am 7.8 4.2 5.1 83 1.2 N 13 17 7 9 1024.6 1024.6 0.0
28/07:30am 6.0 3.6 5.1 94 0.4 N 7 11 4 6 1024.1 1024.1 0.0
28/07:00am 2.4 0.6 1.2 92 0.5 CALM 0 0 0 0 1024.0 1024.0 0.0
28/06:30am 3.3 1.7 2.3 93 0.4 CALM 0 4 0 2 1023.3 1023.3 0.0
28/06:00am 4.3 1.4 2.8 90 0.6 N 7 9 4 5 1023.0 1023.0 0.0
28/05:30am 4.2 0.6 3.2 93 0.4 N 11 15 6 8 1022.4 1022.4 0.0
28/05:00am 2.7 0.4 0.4 85 0.9 N 2 9 1 5 1022.1 1022.1 0.0
28/04:30am 4.9 1.8 3.7 92 0.5 NNE 9 11 5 6 1021.8 1021.8 0.0
28/04:00am 4.7 0.8 3.4 91 0.5 N 13 15 7 8 1021.5 1021.5 0.0
28/03:30am 6.0 2.2 3.8 86 0.9 NNE 13 15 7 8 1021.4 1021.4 0.0
28/03:00am 6.3 2.5 4.0 85 1.0 NNE 13 15 7 8 1021.5 1021.5 0.0
28/02:30am 6.3 2.4 3.6 83 1.1 NNE 13 17 7 9 1021.5 1021.5 0.0
28/02:00am 7.4 4.3 3.6 77 1.6 NNE 9 11 5 6 1021.5 1021.5 0.0
28/01:30am 8.0 4.2 3.7 74 1.8 N 13 17 7 9 1021.6 1021.6 0.0
28/01:00am 10.3 7.3 4.0 65 2.8 NE 9 15 5 8 1021.6 1021.6 0.0
28/12:30am 11.7 7.7 3.0 55 3.8 WSW 13 17 7 9 1021.4 1021.4 0.0
28/12:00am 11.8 8.3 3.6 57 3.6 WSW 11 19 6 10 1021.2 1021.2 0.0
 
Date/Time
EST
Temp
°C
App
Temp
°C
Dew
Point
°C
Rel
Hum
%
Delta-T
°C
Wind Press
QNH
hPa
Press
MSL
hPa
Rain since
9am
mm
Dir  Spd
km/h
Gust
km/h
Spd
kts
Gust
kts
27/11:30pm 11.0 8.2 3.3 59 3.4 WSW 7 15 4 8 1021.0 1021.0 0.0
27/11:00pm 11.8 7.8 3.1 55 3.8 WSW 13 17 7 9 1020.7 1020.7 0.0
27/10:30pm 12.5 8.2 3.2 53 4.1 WSW 15 19 8 10 1020.6 1020.6 0.0
27/10:00pm 12.5 8.1 2.9 52 4.2 WSW 15 20 8 11 1020.7 1020.7 0.0
27/09:30pm 14.3 9.2 3.2 47 5.0 WSW 19 24 10 13 1020.2 1020.2 0.0
27/09:00pm 15.3 10.0 3.1 44 5.5 WSW 20 30 11 16 1019.8 1019.8 0.0
27/08:30pm 14.7 10.1 3.8 48 5.0 W 17 24 9 13 1019.7 1019.7 0.0
27/08:00pm 13.9 10.1 3.9 51 4.5 W 13 19 7 10 1019.7 1019.7 0.0
27/07:30pm 11.1 9.0 6.0 71 2.4 NNE 6 9 3 5 1019.3 1019.3 0.0
27/07:00pm 12.2 9.6 6.3 67 2.8 NE 9 15 5 8 1018.7 1018.7 0.0
27/06:30pm 9.5 7.2 5.7 77 1.7 N 7 15 4 8 1017.9 1017.9 0.0
27/06:00pm 9.6 6.5 5.4 75 1.9 N 11 13 6 7 1017.2 1017.2 0.0
27/05:30pm 12.6 11.5 5.3 61 3.4 CALM 0 0 0 0 1016.7 1016.7 0.0
27/05:00pm 15.4 13.0 5.3 51 4.8 N 7 9 4 5 1016.2 1016.2 0.0
27/04:30pm 17.5 14.2 6.4 48 5.5 N 13 17 7 9 1015.8 1015.8 0.0
27/04:00pm 18.3 14.4 5.5 43 6.2 NNW 15 19 8 10 1015.6 1015.6 0.0
27/03:30pm 19.1 14.5 3.7 36 7.3 NNW 17 26 9 14 1015.2 1015.2 0.0
27/03:00pm 19.5 14.1 4.4 37 7.2 NW 22 32 12 17 1015.3 1015.3 0.0
27/02:30pm 18.6 13.8 4.8 40 6.6 NW 19 28 10 15 1015.5 1015.5 0.0
27/02:00pm 18.0 13.6 4.9 42 6.3 NW 17 28 9 15 1015.4 1015.4 0.0
27/01:30pm 18.1 13.9 5.7 44 6.0 NW 17 24 9 13 1015.9 1015.9 0.0
27/01:00pm 17.4 12.6 4.7 43 6.0 NW 19 28 10 15 1016.1 1016.1 0.0
27/12:30pm 17.2 12.0 3.8 41 6.2 NNW 20 26 11 14 1016.8 1016.8 0.0
27/12:00pm 17.0 11.3 2.6 38 6.5 NW 22 32 12 17 1017.0 1017.0 0.0
27/11:30am 16.8 11.7 3.1 40 6.3 NW 19 28 10 15 1017.3 1017.3 0.0
27/11:00am 16.3 11.2 3.0 41 6.0 NW 19 26 10 14 1017.9 1017.9 0.0
27/10:30am 16.1 11.4 2.9 41 6.0 NW 17 24 9 13 1018.1 1018.1 0.0
27/10:00am 16.1 11.2 1.8 38 6.3 NW 17 28 9 15 1018.4 1018.4 0.0
27/09:30am 16.0 10.8 2.4 40 6.1 NW 19 24 10 13 1018.3 1018.3 0.0
27/09:00am 15.9 10.7 2.3 40 6.1 NW 19 24 10 13 1018.2 1018.2 0.0
27/08:30am 15.5 10.1 2.3 41 5.9 NW 20 32 11 17 1018.0 1018.0 0.0
27/08:00am 14.5 11.0 3.3 47 5.0 NW 11 19 6 10 1018.3 1018.3 0.0
27/07:30am 13.2 9.1 4.1 54 4.1 NNW 15 24 8 13 1017.9 1017.9 0.0
27/07:00am 14.6 9.8 2.8 45 5.3 NW 17 24 9 13 1018.1 1018.1 0.0
27/06:30am 14.0 9.0 3.8 50 4.6 NNW 19 24 10 13 1017.5 1017.5 0.0
27/06:00am 14.4 10.5 3.5 48 4.9 NNW 13 22 7 12 1016.8 1016.8 0.0
27/05:30am 13.3 10.4 4.7 56 4.0 WNW 9 17 5 9 1016.9 1016.9 0.0
27/05:00am 12.2 9.1 5.6 64 3.1 N 11 13 6 7 1016.5 1016.5 0.0
27/04:30am 12.7 11.0 6.1 64 3.1 NE 4 11 2 6 1016.2 1016.2 0.0
27/04:00am 12.5 9.4 5.7 63 3.2 NNW 11 15 6 8 1016.0 1016.0 0.0
27/03:30am 12.9 9.4 5.6 61 3.4 NNW 13 19 7 10 1016.0 1016.0 0.0
27/03:00am 11.6 9.9 7.7 77 1.9 NNE 6 11 3 6 1016.5 1016.5 0.0
27/02:30am 12.0 9.4 7.9 76 2.0 NNE 11 15 6 8 1016.4 1016.4 0.0
27/02:00am 12.5 10.4 8.4 76 2.0 N 9 11 5 6 1016.3 1016.3 0.0
27/01:30am 12.1 10.9 9.7 85 1.2 ENE 6 11 3 6 1016.3 1016.3 0.0
27/01:00am 11.1 10.1 9.0 87 1.0 N 4 9 2 5 1016.4 1016.4 0.0
27/12:30am 11.6 10.3 9.2 85 1.2 ENE 6 11 3 6 1015.9 1015.9 0.0
27/12:00am 11.8 10.9 9.2 84 1.3 NNE 4 9 2 5 1016.3 1016.3 0.0
 
Date/Time
EST
Temp
°C
App
Temp
°C
Dew
Point
°C
Rel
Hum
%
Delta-T
°C
Wind Press
QNH
hPa
Press
MSL
hPa
Rain since
9am
mm
Dir  Spd
km/h
Gust
km/h
Spd
kts
Gust
kts
26/11:30pm 11.4 8.4 9.3 87 1.1 N 15 17 8 9 1016.4 1016.4 0.0
26/11:00pm 11.6 9.4 9.2 85 1.2 N 11 13 6 7 1016.4 1016.4 0.0
26/10:30pm 12.4 11.2 9.4 82 1.5 NE 6 13 3 7 1016.6 1016.6 0.0
26/10:00pm 12.2 10.1 9.6 84 1.3 N 11 15 6 8 1016.4 1016.4 0.0
26/09:30pm 12.3 10.5 9.5 83 1.4 N 9 11 5 6 1016.2 1016.2 0.0
26/09:00pm 12.6 11.2 9.6 82 1.5 NNE 7 9 4 5 1016.5 1016.5 0.0
26/08:30pm 12.7 10.1 9.5 81 1.6 NNW 13 17 7 9 1017.0 1017.0 0.0
26/08:00pm 12.6 10.0 9.4 81 1.6 NNW 13 13 7 7 1016.3 1016.3 0.0
26/07:30pm 13.5 11.4 9.7 78 1.9 N 11 15 6 8 1016.6 1016.6 0.0
26/07:00pm 13.7 11.6 9.9 78 2.0 N 11 13 6 7 1015.9 1015.9 0.0
26/06:30pm 14.1 13.4 8.7 70 2.7 N 2 7 1 4 1015.5 1015.5 0.0
26/06:00pm 16.2 14.0 9.2 63 3.6 NE 11 15 6 8 1015.4 1015.4 0.0
26/05:30pm 16.9 14.2 9.1 60 4.0 NE 13 17 7 9 1015.3 1015.3 0.0
26/05:00pm 17.8 15.0 8.4 54 4.8 NE 13 17 7 9 1015.1 1015.1 0.0
26/04:30pm 18.6 15.8 7.1 47 5.8 N 11 13 6 7 1014.8 1014.8 0.0
26/04:00pm 20.1 17.0 5.7 39 7.1 N 11 13 6 7 1014.7 1014.7 0.0
26/03:30pm 20.7 17.9 5.1 36 7.7 N 9 13 5 7 1014.9 1014.9 0.0
26/03:00pm 21.7 17.8 3.4 30 8.7 NNW 13 15 7 8 1015.1 1015.1 0.0
26/02:30pm 21.5 17.6 3.2 30 8.7 NW 13 19 7 10 1015.3 1015.3 0.0
26/02:00pm 20.6 16.9 4.6 35 7.8 N 13 17 7 9 1015.4 1015.4 0.0
26/01:30pm 20.2 16.7 3.4 33 8.0 N 11 17 6 9 1016.0 1016.0 0.0
26/01:00pm 20.6 17.4 5.0 36 7.6 NNW 11 20 6 11 1016.3 1016.3 0.0
26/12:30pm 19.8 16.4 3.9 35 7.6 N 11 15 6 8 1016.9 1016.9 0.0
26/12:00pm 20.0 16.2 3.7 34 7.7 NW 13 20 7 11 1017.4 1017.4 0.0
26/11:30am 19.0 15.1 3.2 35 7.4 NW 13 19 7 10 1018.2 1018.2 0.0
26/11:00am 18.6 15.4 3.3 36 7.1 NW 9 19 5 10 1018.5 1018.5 0.0
26/10:30am 17.4 13.6 5.7 46 5.7 NNW 15 20 8 11 1018.9 1018.9 0.0
26/10:00am 16.8 12.4 4.8 45 5.7 NW 17 20 9 11 1019.1 1019.1 0.0
26/09:30am 15.8 12.5 6.5 54 4.5 NNW 13 19 7 10 1019.6 1019.6 0.0
26/09:00am 13.8 10.6 6.9 63 3.3 N 13 15 7 8 1019.6 1019.6 0.0
26/08:30am 10.8 8.1 7.5 80 1.6 N 11 13 6 7 1019.4 1019.4 0.0
26/08:00am 9.0 6.1 6.4 84 1.2 N 11 13 6 7 1019.3 1019.3 0.0
26/07:30am 7.2 4.6 6.0 92 0.5 NE 9 11 5 6 1019.2 1019.2 0.0
26/07:00am 5.6 3.8 3.4 86 0.9 NNE 2 6 1 3 1019.1 1019.1 0.0
26/06:30am 7.3 4.5 5.1 86 1.0 NE 9 11 5 6 1018.8 1018.8 0.0
26/06:00am 7.6 5.2 5.4 86 1.0 NE 7 11 4 6 1018.2 1018.2 0.0
26/05:30am 7.2 4.1 5.7 90 0.7 N 11 13 6 7 1017.9 1017.9 0.0
26/05:00am 7.2 4.5 5.5 89 0.8 N 9 11 5 6 1017.9 1017.9 0.0
26/04:30am 7.8 5.1 5.8 87 0.9 NNE 9 11 5 6 1017.6 1017.6 0.0
26/04:00am 7.1 4.0 5.7 91 0.6 NNE 11 13 6 7 1017.5 1017.5 0.0
26/03:30am 6.4 3.5 4.7 89 0.7 N 9 11 5 6 1017.4 1017.4 0.0
26/03:00am 7.3 5.0 5.6 89 0.8 NNE 7 9 4 5 1016.8 1016.8 0.0
26/02:30am 8.6 6.0 6.1 84 1.1 NE 9 11 5 6 1017.2 1017.2 0.0
26/02:00am 7.8 5.2 6.3 90 0.7 N 9 9 5 5 1017.3 1017.3 0.0
26/01:30am 7.5 4.8 5.8 89 0.8 N 9 11 5 6 1017.5 1017.5 0.0
26/01:00am 7.9 5.6 5.9 87 0.9 NNE 7 9 4 5 1017.8 1017.8 0.0
26/12:30am 8.4 5.2 6.9 90 0.7 N 13 15 7 8 1017.8 1017.8 0.0
26/12:00am 10.0 7.4 7.9 87 1.0 NE 11 13 6 7 1017.8 1017.8 0.0
 
Date/Time
EST
Temp
°C
App
Temp
°C
Dew
Point
°C
Rel
Hum
%
Delta-T
°C
Wind Press
QNH
hPa
Press
MSL
hPa
Rain since
9am
mm
Dir  Spd
km/h
Gust
km/h
Spd
kts
Gust
kts
25/11:30pm 10.2 7.9 7.6 84 1.2 NNE 9 9 5 5 1018.0 1018.0 0.0
25/11:00pm 9.3 6.8 6.7 84 1.2 N 9 11 5 6 1017.8 1017.8 0.0
25/10:30pm 9.8 7.9 7.6 86 1.0 NNE 7 9 4 5 1017.8 1017.8 0.0
25/10:00pm 10.0 7.3 7.4 84 1.2 N 11 13 6 7 1018.0 1018.0 0.0
25/09:30pm 10.1 6.9 7.0 81 1.5 N 13 13 7 7 1017.7 1017.7 0.0
25/09:00pm 10.4 7.4 7.5 82 1.4 N 13 13 7 7 1017.7 1017.7 0.0
25/08:30pm 11.2 8.0 6.9 75 2.0 N 13 15 7 8 1017.4 1017.4 0.0
25/08:00pm 11.8 9.0 6.9 72 2.3 N 11 15 6 8 1017.4 1017.4 0.0
25/07:30pm 12.4 8.8 6.9 69 2.6 N 15 19 8 10 1016.9 1016.9 0.0
25/07:00pm 11.8 8.2 6.7 71 2.4 N 15 17 8 9 1016.6 1016.6 0.0
25/06:30pm 11.5 8.3 6.8 73 2.2 NNW 13 17 7 9 1016.3 1016.3 0.0
25/06:00pm 12.7 10.1 6.3 65 3.0 NNE 9 15 5 8 1016.0 1016.0 0.0
25/05:30pm 13.3 11.0 5.7 60 3.6 W 7 11 4 6 1015.6 1015.6 0.0
25/05:00pm 17.2 16.0 6.4 49 5.3 NW 2 6 1 3 1015.1 1015.1 0.0
25/04:30pm 19.8 16.9 6.5 42 6.7 NNW 11 13 6 7 1015.0 1015.0 0.0
25/04:00pm 20.2 16.9 6.2 40 7.0 NNW 13 17 7 9 1014.9 1014.9 0.0
25/03:30pm 21.5 18.3 5.0 34 8.1 NW 11 17 6 9 1014.7 1014.7 0.0
25/03:00pm 21.4 18.1 4.5 33 8.2 NNW 11 22 6 12 1014.6 1014.6 0.0
25/02:30pm 21.2 17.6 5.1 35 7.9 NNW 13 22 7 12 1014.7 1014.7 0.0
25/02:00pm 21.4 17.0 4.5 33 8.2 NNW 17 24 9 13 1014.8 1014.8 0.0
25/01:30pm 20.2 16.5 6.2 40 7.0 NNW 15 20 8 11 1014.9 1014.9 0.0
25/01:00pm 20.8 16.4 4.8 35 7.8 NW 17 26 9 14 1015.1 1015.1 0.0
25/12:30pm 20.4 16.8 5.2 37 7.5 W 13 19 7 10 1015.6 1015.6 0.0
25/12:00pm 19.5 14.6 5.2 39 7.0 W 20 32 11 17 1016.1 1016.1 0.0
25/11:30am 18.1 13.5 3.6 38 6.8 W 17 24 9 13 1016.8 1016.8 0.0
25/11:00am 18.4 13.8 3.8 38 6.9 NW 17 28 9 15 1017.1 1017.1 0.0
25/10:30am 18.0 14.1 5.2 43 6.2 NW 15 26 8 14 1017.6 1017.6 0.0
25/10:00am 17.1 12.3 4.8 44 5.8 NW 19 28 10 15 1017.9 1017.9 0.0
25/09:30am 16.4 11.9 4.4 45 5.6 NW 17 22 9 12 1018.3 1018.3 0.0

Other Formats:

Comma delimited format used in spreadsheet applications
http://www.bom.gov.au/fwo/IDN60801/IDN60801.94572.axf

JavaScript Object Notation format (JSON) in row-major order
http://www.bom.gov.au/fwo/IDN60801/IDN60801.94572.json